Time;durP1;ratioP1;P1;durP2;ratioP2;P2;SDS_P1;SDS_P2;PMS_P1;PMS_P2;Temp;Humidity;BMP_temperature;BMP_pressure;BME280_temperature;BME280_humidity;BME280_pressure;Samples;Min_cycle;Max_cycle;Signal;HPM_P1;HPM_P2
2021/11/13 00:00:38;;;;;;;48.90;24.90;;;;;;;;;;5097258;28;20896;-71
2021/11/13 00:03:05;;;;;;;48.07;22.40;;;;;;;;;;5096383;28;20481;-72
2021/11/13 00:05:33;;;;;;;55.13;21.03;;;;;;;;;;5097142;28;20448;-72
2021/11/13 00:08:03;;;;;;;61.40;27.47;;;;;;;;;;5096268;28;20726;-72
2021/11/13 00:10:33;;;;;;;53.03;23.20;;;;;;;;;;5097643;28;20486;-72
2021/11/13 00:13:05;;;;;;;64.83;21.70;;;;;;;;;;5109172;28;20487;-72
2021/11/13 00:15:32;;;;;;;44.40;20.60;;;;;;;;;;5117125;28;20492;-73
2021/11/13 00:18:00;;;;;;;50.30;24.40;;;;;;;;;;5116621;28;20768;-72
2021/11/13 00:20:28;;;;;;;72.40;32.40;;;;;;;;;;5107110;28;20452;-72
2021/11/13 00:22:57;;;;;;;81.13;37.60;;;;;;;;;;5097291;28;20529;-73
2021/11/13 00:25:27;;;;;;;57.27;29.13;;;;;;;;;;5108278;28;20450;-71
2021/11/13 00:27:54;;;;;;;51.50;27.27;;;;;;;;;;5098678;28;20890;-72
2021/11/13 00:30:23;;;;;;;53.30;26.33;;;;;;;;;;5099603;28;20447;-72
2021/11/13 00:32:52;;;;;;;48.03;24.37;;;;;;;;;;5101032;28;20556;-73
2021/11/13 00:35:20;;;;;;;40.27;20.67;;;;;;;;;;5104574;28;20450;-74
2021/11/13 00:37:47;;;;;;;65.00;29.53;;;;;;;;;;5120218;28;20462;-73
2021/11/13 00:40:16;;;;;;;55.97;24.43;;;;;;;;;;5114607;28;20542;-72
2021/11/13 00:42:49;;;;;;;47.20;24.90;;;;;;;;;;5099430;28;20574;-72
2021/11/13 00:45:16;;;;;;;56.87;26.57;;;;;;;;;;5118401;28;20443;-72
2021/11/13 00:47:44;;;;;;;58.60;25.80;;;;;;;;;;5119959;28;20726;-71
2021/11/13 00:50:13;;;;;;;58.20;28.90;;;;;;;;;;5104075;28;20597;-71
2021/11/13 00:52:41;;;;;;;52.83;26.67;;;;;;;;;;5108864;28;20798;-71
2021/11/13 00:55:09;;;;;;;49.97;23.30;;;;;;;;;;5089385;28;20464;-71
2021/11/13 00:57:37;;;;;;;52.23;27.20;;;;;;;;;;5099813;28;20451;-72
2021/11/13 01:00:08;;;;;;;65.83;35.00;;;;;;;;;;5098972;28;20512;-72
2021/11/13 01:02:44;;;;;;;36.93;18.67;;;;;;;;;;5100374;28;20768;-72
2021/11/13 01:05:12;;;;;;;52.63;24.63;;;;;;;;;;5099517;28;20463;-72
2021/11/13 01:07:40;;;;;;;54.93;26.13;;;;;;;;;;5099694;28;20443;-73
2021/11/13 01:10:11;;;;;;;43.80;21.70;;;;;;;;;;5099090;28;20528;-72
2021/11/13 01:12:39;;;;;;;54.93;22.73;;;;;;;;;;5119651;28;20475;-73
2021/11/13 01:15:10;;;;;;;42.93;21.60;;;;;;;;;;5100088;28;20455;-73
2021/11/13 01:17:43;;;;;;;43.23;20.60;;;;;;;;;;5116112;28;20802;-72
2021/11/13 01:20:12;;;;;;;41.07;19.53;;;;;;;;;;5113478;28;20471;-72
2021/11/13 01:22:39;;;;;;;44.60;21.17;;;;;;;;;;5099723;28;20443;-72
2021/11/13 01:25:11;;;;;;;43.40;19.70;;;;;;;;;;5100658;28;20907;-72
2021/11/13 01:27:39;;;;;;;51.00;27.00;;;;;;;;;;5097226;28;20550;-72
2021/11/13 01:30:09;;;;;;;64.23;32.93;;;;;;;;;;5104335;28;20458;-73
2021/11/13 01:32:37;;;;;;;46.30;24.40;;;;;;;;;;5110174;28;20451;-72
2021/11/13 01:35:05;;;;;;;41.33;19.30;;;;;;;;;;5107485;28;20486;-72
2021/11/13 01:37:33;;;;;;;42.00;21.50;;;;;;;;;;5105142;28;20524;-73
2021/11/13 01:40:01;;;;;;;46.00;23.23;;;;;;;;;;5098568;28;20459;-73
2021/11/13 01:42:30;;;;;;;43.67;21.00;;;;;;;;;;5109246;28;20862;-72
2021/11/13 01:44:57;;;;;;;37.00;19.63;;;;;;;;;;5083397;28;20490;-72
2021/11/13 01:47:26;;;;;;;37.03;18.70;;;;;;;;;;5105118;28;20483;-72
2021/11/13 01:49:54;;;;;;;32.50;14.37;;;;;;;;;;5104638;28;20452;-72
2021/11/13 01:52:23;;;;;;;42.33;18.77;;;;;;;;;;5098238;28;20483;-72
2021/11/13 01:54:50;;;;;;;42.23;19.17;;;;;;;;;;5104286;28;20837;-72
2021/11/13 01:57:22;;;;;;;36.50;19.93;;;;;;;;;;5103204;28;20501;-72
2021/11/13 01:59:51;;;;;;;40.80;20.03;;;;;;;;;;5098391;28;20520;-72
2021/11/13 02:02:18;;;;;;;40.47;20.33;;;;;;;;;;5097831;28;20467;-73
2021/11/13 02:04:48;;;;;;;42.07;19.20;;;;;;;;;;5100615;28;20880;-73
2021/11/13 02:07:21;;;;;;;43.97;20.87;;;;;;;;;;5103075;28;20531;-73
2021/11/13 02:09:49;;;;;;;35.70;18.47;;;;;;;;;;5101347;28;20517;-72
2021/11/13 02:12:16;;;;;;;51.43;16.27;;;;;;;;;;5098371;28;20456;-72
2021/11/13 02:14:45;;;;;;;46.07;21.13;;;;;;;;;;5104332;28;20485;-72
2021/11/13 02:17:12;;;;;;;40.97;21.20;;;;;;;;;;5118741;28;20458;-73
2021/11/13 02:19:40;;;;;;;45.40;20.67;;;;;;;;;;5117768;28;20457;-72
2021/11/13 02:22:09;;;;;;;41.90;19.57;;;;;;;;;;5098251;28;20463;-72
2021/11/13 02:24:37;;;;;;;44.23;17.93;;;;;;;;;;5098718;28;20848;-72
2021/11/13 02:27:06;;;;;;;44.10;21.40;;;;;;;;;;5099243;28;20458;-72
2021/11/13 02:29:34;;;;;;;43.47;20.13;;;;;;;;;;5114774;28;20458;-72
2021/11/13 02:32:02;;;;;;;35.70;18.90;;;;;;;;;;5116350;28;20737;-72
2021/11/13 02:34:29;;;;;;;38.40;19.70;;;;;;;;;;5117806;28;20482;-72
2021/11/13 02:36:57;;;;;;;43.23;21.10;;;;;;;;;;5118255;28;20451;-72
2021/11/13 02:39:27;;;;;;;45.53;21.13;;;;;;;;;;5110841;28;20466;-73
2021/11/13 02:41:55;;;;;;;45.00;21.50;;;;;;;;;;5097695;28;21018;-72
2021/11/13 02:44:23;;;;;;;38.87;18.87;;;;;;;;;;5102855;28;20455;-73
2021/11/13 02:46:52;;;;;;;36.10;18.27;;;;;;;;;;5115431;28;20458;-73
2021/11/13 02:49:20;;;;;;;40.47;20.30;;;;;;;;;;5117128;28;20553;-73
2021/11/13 02:51:48;;;;;;;46.33;21.90;;;;;;;;;;5117337;28;20446;-73
2021/11/13 02:54:16;;;;;;;35.20;16.67;;;;;;;;;;5117250;28;21009;-73
2021/11/13 02:56:47;;;;;;;39.30;20.67;;;;;;;;;;5117001;28;20531;-73
2021/11/13 02:59:15;;;;;;;38.50;19.70;;;;;;;;;;5117893;28;20888;-73
2021/11/13 03:01:43;;;;;;;58.30;26.13;;;;;;;;;;5117922;28;20462;-73
2021/11/13 03:04:12;;;;;;;39.20;19.30;;;;;;;;;;5117575;28;20469;-73
2021/11/13 03:06:40;;;;;;;36.70;18.17;;;;;;;;;;5116881;28;20542;-73
2021/11/13 03:09:08;;;;;;;52.10;21.77;;;;;;;;;;5117437;28;20454;-73
2021/11/13 03:11:36;;;;;;;41.70;17.53;;;;;;;;;;5117847;28;20457;-73
2021/11/13 03:14:05;;;;;;;38.53;19.07;;;;;;;;;;5116537;28;20487;-73
2021/11/13 03:16:33;;;;;;;44.50;21.87;;;;;;;;;;5117369;28;20532;-73
2021/11/13 03:19:00;;;;;;;38.83;18.70;;;;;;;;;;5112631;28;20497;-73
2021/11/13 03:21:28;;;;;;;35.87;18.43;;;;;;;;;;5112315;28;20447;-73
2021/11/13 03:23:57;;;;;;;49.60;23.30;;;;;;;;;;5097397;28;20844;-73
2021/11/13 03:26:29;;;;;;;35.13;19.47;;;;;;;;;;5107313;28;20539;-73
2021/11/13 03:28:58;;;;;;;42.00;19.60;;;;;;;;;;5102502;28;20498;-72
2021/11/13 03:31:37;;;;;;;44.37;20.60;;;;;;;;;;5100569;28;20474;-73
2021/11/13 03:34:13;;;;;;;32.40;17.30;;;;;;;;;;5093485;28;20506;-72
2021/11/13 03:36:44;;;;;;;37.60;18.40;;;;;;;;;;5114570;28;20511;-73
2021/11/13 03:39:11;;;;;;;35.93;20.27;;;;;;;;;;5104383;28;20470;-73
2021/11/13 03:41:39;;;;;;;35.63;17.63;;;;;;;;;;5098148;28;20453;-71
2021/11/13 03:44:07;;;;;;;34.27;17.40;;;;;;;;;;5101911;28;20456;-73
2021/11/13 03:46:36;;;;;;;34.60;19.27;;;;;;;;;;5096698;28;20821;-73
2021/11/13 03:49:03;;;;;;;34.30;18.77;;;;;;;;;;5095435;28;20444;-73
2021/11/13 03:51:34;;;;;;;36.20;18.90;;;;;;;;;;5097951;28;20483;-72
2021/11/13 03:54:03;;;;;;;31.60;15.50;;;;;;;;;;5103340;28;20817;-73
2021/11/13 03:56:31;;;;;;;35.57;17.60;;;;;;;;;;5096362;28;20513;-72
2021/11/13 03:59:04;;;;;;;38.87;19.27;;;;;;;;;;5112289;28;20522;-73
2021/11/13 04:01:32;;;;;;;38.93;20.00;;;;;;;;;;5105513;28;20466;-72
2021/11/13 04:04:02;;;;;;;39.70;18.97;;;;;;;;;;5096492;28;20520;-73
2021/11/13 04:06:29;;;;;;;35.50;17.27;;;;;;;;;;5093764;28;20459;-73
2021/11/13 04:08:58;;;;;;;37.87;15.47;;;;;;;;;;5102011;28;20554;-71
2021/11/13 04:11:26;;;;;;;35.07;18.37;;;;;;;;;;5097023;28;20444;-73
2021/11/13 04:13:54;;;;;;;35.80;17.53;;;;;;;;;;5097362;28;20483;-74
2021/11/13 04:16:21;;;;;;;33.67;18.50;;;;;;;;;;5096463;28;20454;-72
2021/11/13 04:18:51;;;;;;;34.73;18.90;;;;;;;;;;5096179;28;20471;-73
2021/11/13 04:21:20;;;;;;;32.93;18.33;;;;;;;;;;5096507;28;20464;-72
2021/11/13 04:23:52;;;;;;;36.47;18.70;;;;;;;;;;5096141;28;20448;-72
2021/11/13 04:26:23;;;;;;;33.80;17.10;;;;;;;;;;5096112;28;20482;-72
2021/11/13 04:28:51;;;;;;;31.77;16.63;;;;;;;;;;5095640;28;20712;-73
2021/11/13 04:31:19;;;;;;;24.40;13.63;;;;;;;;;;5096104;28;20977;-72
2021/11/13 04:33:47;;;;;;;37.67;18.43;;;;;;;;;;5095954;28;20494;-73
2021/11/13 04:36:18;;;;;;;39.70;17.20;;;;;;;;;;5096205;28;20451;-73
2021/11/13 04:38:50;;;;;;;29.17;15.10;;;;;;;;;;5095296;28;20463;-73
2021/11/13 04:41:17;;;;;;;29.53;14.93;;;;;;;;;;5091711;28;20455;-73
2021/11/13 04:43:45;;;;;;;34.10;16.90;;;;;;;;;;5096202;28;20444;-73
2021/11/13 04:46:15;;;;;;;38.57;19.97;;;;;;;;;;5095736;28;20538;-73
2021/11/13 04:48:42;;;;;;;30.67;17.20;;;;;;;;;;5096176;28;20468;-73
2021/11/13 04:51:10;;;;;;;33.00;16.67;;;;;;;;;;5095312;28;20528;-73
2021/11/13 04:53:38;;;;;;;33.60;18.27;;;;;;;;;;5096525;28;20477;-73
2021/11/13 04:56:07;;;;;;;35.20;18.70;;;;;;;;;;5096410;28;20444;-73
2021/11/13 04:58:35;;;;;;;36.80;15.43;;;;;;;;;;5094351;28;20464;-72
2021/11/13 05:01:04;;;;;;;31.10;18.93;;;;;;;;;;5088500;28;20463;-72
2021/11/13 05:03:32;;;;;;;31.17;15.67;;;;;;;;;;5088396;28;20524;-72
2021/11/13 05:06:00;;;;;;;29.97;16.53;;;;;;;;;;5085098;28;20443;-72
2021/11/13 05:08:28;;;;;;;32.40;15.73;;;;;;;;;;5087512;28;20463;-72
2021/11/13 05:11:01;;;;;;;29.73;16.77;;;;;;;;;;5095351;28;20462;-72
2021/11/13 05:13:31;;;;;;;33.87;17.73;;;;;;;;;;5090127;28;20460;-72
2021/11/13 05:16:03;;;;;;;28.70;16.17;;;;;;;;;;5103189;28;20444;-73
2021/11/13 05:18:31;;;;;;;34.53;17.93;;;;;;;;;;5098426;28;20491;-73
2021/11/13 05:20:59;;;;;;;31.93;18.40;;;;;;;;;;5098348;28;20479;-72
2021/11/13 05:23:27;;;;;;;27.67;16.80;;;;;;;;;;5098940;28;20528;-73
2021/11/13 05:26:01;;;;;;;38.10;16.63;;;;;;;;;;5098716;28;20454;-72
2021/11/13 05:28:30;;;;;;;32.00;15.57;;;;;;;;;;5112504;28;20470;-73
2021/11/13 05:30:58;;;;;;;33.27;16.87;;;;;;;;;;5102316;28;20452;-72
2021/11/13 05:33:29;;;;;;;27.07;14.27;;;;;;;;;;5099776;28;20451;-72
2021/11/13 05:35:59;;;;;;;30.90;16.90;;;;;;;;;;5098420;28;20483;-72
2021/11/13 05:38:29;;;;;;;26.43;15.60;;;;;;;;;;5098535;28;20867;-73
2021/11/13 05:40:57;;;;;;;35.83;18.00;;;;;;;;;;5098467;28;20486;-72
2021/11/13 05:43:28;;;;;;;34.50;16.87;;;;;;;;;;5099402;28;20459;-72
2021/11/13 05:46:00;;;;;;;28.20;13.70;;;;;;;;;;5098503;28;20439;-73
2021/11/13 05:48:28;;;;;;;26.23;15.07;;;;;;;;;;5099107;28;20489;-73
2021/11/13 05:50:59;;;;;;;26.87;15.93;;;;;;;;;;5099334;28;20838;-73
2021/11/13 05:53:29;;;;;;;31.73;15.00;;;;;;;;;;5098533;28;20872;-73
2021/11/13 05:56:02;;;;;;;32.90;16.60;;;;;;;;;;5094016;28;20521;-72
2021/11/13 05:58:33;;;;;;;32.43;17.00;;;;;;;;;;5098039;28;20887;-71
2021/11/13 06:01:04;;;;;;;31.27;16.67;;;;;;;;;;5093727;28;20875;-72
2021/11/13 06:03:32;;;;;;;30.47;18.00;;;;;;;;;;5098913;28;20538;-72
2021/11/13 06:06:00;;;;;;;30.23;15.17;;;;;;;;;;5097723;28;20840;-72
2021/11/13 06:08:30;;;;;;;30.07;16.93;;;;;;;;;;5108281;28;20465;-72
2021/11/13 06:10:57;;;;;;;32.13;16.10;;;;;;;;;;5118600;28;20458;-73
2021/11/13 06:13:25;;;;;;;33.43;18.60;;;;;;;;;;5116880;28;20447;-72
2021/11/13 06:15:54;;;;;;;30.10;17.20;;;;;;;;;;5118089;28;20595;-73
2021/11/13 06:18:24;;;;;;;27.97;16.60;;;;;;;;;;5102763;28;20443;-73
2021/11/13 06:20:51;;;;;;;28.17;16.70;;;;;;;;;;5101594;28;20934;-73
2021/11/13 06:23:26;;;;;;;26.30;14.93;;;;;;;;;;5097760;28;20462;-73
2021/11/13 06:26:02;;;;;;;27.70;13.33;;;;;;;;;;5118049;28;20866;-72
2021/11/13 06:29:02;;;;;;;26.30;15.03;;;;;;;;;;5119117;28;20537;-72
2021/11/13 06:31:31;;;;;;;27.27;16.40;;;;;;;;;;5101112;28;20554;-72
2021/11/13 06:34:01;;;;;;;27.30;15.70;;;;;;;;;;5097192;28;20815;-72
2021/11/13 06:36:34;;;;;;;24.23;15.57;;;;;;;;;;5099325;28;20978;-72
2021/11/13 06:39:05;;;;;;;30.20;16.60;;;;;;;;;;5097175;28;20459;-72
2021/11/13 06:41:33;;;;;;;21.80;12.17;;;;;;;;;;5097858;28;20456;-71
2021/11/13 06:44:02;;;;;;;26.40;14.90;;;;;;;;;;5096969;28;20704;-72
2021/11/13 06:46:30;;;;;;;22.10;14.47;;;;;;;;;;5096582;28;20440;-72
2021/11/13 06:49:02;;;;;;;23.97;15.63;;;;;;;;;;5098415;28;20535;-72
2021/11/13 06:51:29;;;;;;;24.73;15.47;;;;;;;;;;5111010;28;20454;-73
2021/11/13 06:53:59;;;;;;;20.83;13.47;;;;;;;;;;5116402;28;20462;-72
2021/11/13 06:56:27;;;;;;;24.33;12.70;;;;;;;;;;5107428;28;20980;-72
2021/11/13 06:58:57;;;;;;;27.60;15.30;;;;;;;;;;5096982;28;20966;-73
2021/11/13 07:01:29;;;;;;;29.30;18.50;;;;;;;;;;5104532;28;20803;-73
2021/11/13 07:03:57;;;;;;;25.97;16.73;;;;;;;;;;5117991;28;20931;-71
2021/11/13 07:06:30;;;;;;;25.97;15.87;;;;;;;;;;5105127;28;20465;-74
2021/11/13 07:08:58;;;;;;;29.13;17.13;;;;;;;;;;5111793;28;20926;-71
2021/11/13 07:11:26;;;;;;;26.53;16.30;;;;;;;;;;5111960;28;20435;-73
2021/11/13 07:13:54;;;;;;;26.53;14.27;;;;;;;;;;5102775;28;20490;-74
2021/11/13 07:16:23;;;;;;;22.43;15.33;;;;;;;;;;5108764;28;20474;-74
2021/11/13 07:18:51;;;;;;;21.63;14.47;;;;;;;;;;5109417;28;20443;-73
2021/11/13 07:21:22;;;;;;;22.67;13.07;;;;;;;;;;5112200;28;20489;-72
2021/11/13 07:23:54;;;;;;;27.47;14.27;;;;;;;;;;5113166;28;20498;-73
2021/11/13 07:29:07;;;;;;;21.77;13.83;;;;;;;;;;5093032;28;20471;-72
2021/11/13 07:31:36;;;;;;;24.80;13.67;;;;;;;;;;5094586;28;20463;-73
2021/11/13 07:34:04;;;;;;;23.63;15.57;;;;;;;;;;5111544;28;20874;-72
2021/11/13 07:36:32;;;;;;;22.43;15.73;;;;;;;;;;5099863;28;20522;-73
2021/11/13 07:39:01;;;;;;;23.53;15.23;;;;;;;;;;5094635;28;20468;-74
2021/11/13 07:41:33;;;;;;;21.63;13.40;;;;;;;;;;5093113;28;20451;-75
2021/11/13 07:44:02;;;;;;;28.33;16.20;;;;;;;;;;5096360;28;20868;-73
2021/11/13 07:46:29;;;;;;;23.87;15.77;;;;;;;;;;5093161;28;20462;-73
2021/11/13 07:48:57;;;;;;;29.63;19.20;;;;;;;;;;5103089;28;20534;-74
2021/11/13 07:51:25;;;;;;;23.30;14.37;;;;;;;;;;5115182;28;20477;-72
2021/11/13 07:53:53;;;;;;;25.70;15.20;;;;;;;;;;5104476;28;20473;-72
2021/11/13 07:56:22;;;;;;;22.93;13.60;;;;;;;;;;5093224;28;20490;-73
2021/11/13 07:58:50;;;;;;;26.97;15.20;;;;;;;;;;5100522;28;20450;-73
2021/11/13 08:01:17;;;;;;;22.27;13.70;;;;;;;;;;5098993;28;20466;-73
2021/11/13 08:03:54;;;;;;;26.20;14.13;;;;;;;;;;5108724;28;20439;-73
2021/11/13 08:06:22;;;;;;;23.57;14.67;;;;;;;;;;5115254;28;20458;-74
2021/11/13 08:08:49;;;;;;;22.53;13.83;;;;;;;;;;5115176;28;20921;-74
2021/11/13 08:11:17;;;;;;;18.60;12.10;;;;;;;;;;5115698;28;20850;-73
2021/11/13 08:13:47;;;;;;;32.80;14.97;;;;;;;;;;5102575;28;20452;-74
2021/11/13 08:16:15;;;;;;;25.90;15.10;;;;;;;;;;5095968;28;20487;-74
2021/11/13 08:18:44;;;;;;;29.60;15.73;;;;;;;;;;5111867;28;20450;-74
2021/11/13 08:21:16;;;;;;;23.17;14.30;;;;;;;;;;5116834;28;20446;-73
2021/11/13 08:23:45;;;;;;;20.23;13.70;;;;;;;;;;5107875;28;20545;-74
2021/11/13 08:26:15;;;;;;;25.93;15.00;;;;;;;;;;5116253;28;20477;-73
2021/11/13 08:28:46;;;;;;;22.03;14.13;;;;;;;;;;5108792;28;20520;-73
2021/11/13 08:31:17;;;;;;;26.87;17.83;;;;;;;;;;5092437;28;20482;-74
2021/11/13 08:33:45;;;;;;;24.60;13.37;;;;;;;;;;5096655;28;20467;-74
2021/11/13 08:36:13;;;;;;;22.90;15.23;;;;;;;;;;5094558;28;20535;-74
2021/11/13 08:38:47;;;;;;;19.80;12.97;;;;;;;;;;5094678;28;20455;-74
2021/11/13 08:41:14;;;;;;;26.90;17.57;;;;;;;;;;5094779;28;20553;-73
2021/11/13 08:43:42;;;;;;;23.67;14.93;;;;;;;;;;5095753;28;20456;-74
2021/11/13 08:46:12;;;;;;;22.67;13.47;;;;;;;;;;5097070;28;20546;-74
2021/11/13 08:48:40;;;;;;;21.57;14.53;;;;;;;;;;5078908;28;20820;-73
2021/11/13 08:51:09;;;;;;;24.30;13.57;;;;;;;;;;5079010;28;20452;-74
2021/11/13 08:53:38;;;;;;;27.23;13.10;;;;;;;;;;5079387;28;20467;-74
2021/11/13 08:56:09;;;;;;;23.40;14.80;;;;;;;;;;5095913;28;20474;-73
2021/11/13 08:58:37;;;;;;;20.43;13.00;;;;;;;;;;5100436;28;20527;-72
2021/11/13 09:01:06;;;;;;;22.67;12.27;;;;;;;;;;5099594;28;20464;-74
2021/11/13 09:03:37;;;;;;;20.93;14.47;;;;;;;;;;5097863;28;20459;-74
2021/11/13 09:06:08;;;;;;;21.67;13.37;;;;;;;;;;5098359;28;20937;-74
2021/11/13 09:08:37;;;;;;;21.27;13.43;;;;;;;;;;5097913;28;20457;-74
2021/11/13 09:11:05;;;;;;;22.23;14.30;;;;;;;;;;5097617;28;20839;-74
2021/11/13 09:13:33;;;;;;;21.60;13.03;;;;;;;;;;5098314;28;20550;-74
2021/11/13 09:16:06;;;;;;;23.37;14.53;;;;;;;;;;5085448;28;20474;-74
2021/11/13 09:18:39;;;;;;;22.20;13.13;;;;;;;;;;5092175;28;20492;-74
2021/11/13 09:21:16;;;;;;;22.47;13.40;;;;;;;;;;5091885;28;20443;-75
2021/11/13 09:23:44;;;;;;;22.27;13.20;;;;;;;;;;5100073;28;20451;-74
2021/11/13 09:29:00;;;;;;;20.63;14.47;;;;;;;;;;5115295;28;20446;-75
2021/11/13 09:31:31;;;;;;;15.40;11.40;;;;;;;;;;5106323;28;20462;-73
2021/11/13 09:34:03;;;;;;;16.90;11.33;;;;;;;;;;5098981;28;20832;-73
2021/11/13 09:36:34;;;;;;;19.43;12.70;;;;;;;;;;5093775;28;20480;-75
2021/11/13 09:39:02;;;;;;;20.80;13.57;;;;;;;;;;5099922;28;20824;-74
2021/11/13 09:41:30;;;;;;;20.77;12.87;;;;;;;;;;5119565;28;20458;-73
2021/11/13 09:44:00;;;;;;;16.70;11.37;;;;;;;;;;5119188;28;20788;-73
2021/11/13 09:46:28;;;;;;;16.03;10.40;;;;;;;;;;5108073;28;20964;-73
2021/11/13 09:48:57;;;;;;;17.90;11.43;;;;;;;;;;5098442;28;20818;-72
2021/11/13 09:51:29;;;;;;;15.43;11.27;;;;;;;;;;5097156;28;20551;-73
2021/11/13 09:53:58;;;;;;;13.87;9.77;;;;;;;;;;5097056;28;20455;-72
2021/11/13 09:56:26;;;;;;;18.47;12.90;;;;;;;;;;5095406;28;20484;-73
2021/11/13 09:58:54;;;;;;;19.93;13.60;;;;;;;;;;5093048;28;20764;-73
2021/11/13 10:01:22;;;;;;;20.03;12.50;;;;;;;;;;5099430;28;20502;-73
2021/11/13 10:03:51;;;;;;;17.20;12.50;;;;;;;;;;5101630;28;20462;-73
2021/11/13 10:06:22;;;;;;;18.83;11.60;;;;;;;;;;5097357;28;20451;-73
2021/11/13 10:08:52;;;;;;;15.17;9.57;;;;;;;;;;5096469;28;20524;-73
2021/11/13 10:11:22;;;;;;;21.53;13.47;;;;;;;;;;5091948;28;20532;-73
2021/11/13 10:13:52;;;;;;;15.20;10.83;;;;;;;;;;5110392;28;20446;-73
2021/11/13 10:19:06;;;;;;;18.87;11.30;;;;;;;;;;5096127;28;20457;-73
2021/11/13 10:21:52;;;;;;;16.83;12.30;;;;;;;;;;5095654;28;20463;-72
2021/11/13 10:24:23;;;;;;;17.47;11.23;;;;;;;;;;5080915;28;20481;-73
2021/11/13 10:26:52;;;;;;;17.90;12.40;;;;;;;;;;5083294;28;20577;-73
2021/11/13 10:29:24;;;;;;;24.20;15.10;;;;;;;;;;5076045;28;20951;-73
2021/11/13 10:31:59;;;;;;;19.80;12.57;;;;;;;;;;5082096;28;20603;-73
2021/11/13 10:34:32;;;;;;;20.60;12.30;;;;;;;;;;5096976;28;20459;-74
2021/11/13 10:37:02;;;;;;;22.23;12.20;;;;;;;;;;5095779;28;20540;-73
2021/11/13 10:39:33;;;;;;;18.50;10.67;;;;;;;;;;5107083;28;20927;-73
2021/11/13 10:42:05;;;;;;;15.70;10.90;;;;;;;;;;5076222;28;20811;-74
2021/11/13 10:44:52;;;;;;;18.60;12.00;;;;;;;;;;5090957;28;20448;-74
2021/11/13 10:47:24;;;;;;;14.70;10.17;;;;;;;;;;5096141;28;20525;-74
2021/11/13 10:50:13;;;;;;;19.83;13.03;;;;;;;;;;5097471;28;20460;-73
2021/11/13 10:52:41;;;;;;;18.63;12.90;;;;;;;;;;5095987;28;20452;-73
2021/11/13 10:55:19;;;;;;;19.40;12.77;;;;;;;;;;5098236;28;20451;-73
2021/11/13 10:57:47;;;;;;;17.83;12.50;;;;;;;;;;5101706;28;20546;-73
2021/11/13 11:00:16;;;;;;;14.53;11.23;;;;;;;;;;5099356;28;20456;-73
2021/11/13 11:02:47;;;;;;;15.10;10.90;;;;;;;;;;5092730;28;20530;-73
2021/11/13 11:05:22;;;;;;;18.57;11.20;;;;;;;;;;5091549;28;20774;-72
2021/11/13 11:07:50;;;;;;;26.23;15.97;;;;;;;;;;5094953;28;20555;-72
2021/11/13 11:10:21;;;;;;;27.50;17.47;;;;;;;;;;5093229;28;20933;-73
2021/11/13 11:12:49;;;;;;;19.23;12.43;;;;;;;;;;5094543;28;20462;-73
2021/11/13 11:15:21;;;;;;;15.20;10.97;;;;;;;;;;5092238;28;20446;-73
2021/11/13 11:17:58;;;;;;;18.97;12.70;;;;;;;;;;5090537;28;20983;-73
2021/11/13 11:20:27;;;;;;;11.43;8.83;;;;;;;;;;5090735;28;20562;-72
2021/11/13 11:22:54;;;;;;;16.60;10.73;;;;;;;;;;5094744;28;20470;-71
2021/11/13 11:25:27;;;;;;;19.33;10.73;;;;;;;;;;5094668;28;20463;-71
2021/11/13 11:28:00;;;;;;;20.53;11.67;;;;;;;;;;5094725;28;20540;-73
2021/11/13 11:30:28;;;;;;;17.57;13.30;;;;;;;;;;5102998;28;20875;-73
2021/11/13 11:32:57;;;;;;;14.00;9.70;;;;;;;;;;5095326;28;20480;-72
2021/11/13 11:35:27;;;;;;;17.57;12.13;;;;;;;;;;5094438;28;20525;-72
2021/11/13 11:38:33;;;;;;;21.80;11.83;;;;;;;;;;5094468;28;20456;-72
2021/11/13 11:41:03;;;;;;;14.33;9.50;;;;;;;;;;5107938;28;20447;-72
2021/11/13 11:43:32;;;;;;;15.80;11.73;;;;;;;;;;5114351;28;20854;-72
2021/11/13 11:45:59;;;;;;;18.33;10.43;;;;;;;;;;5115349;28;20439;-72
2021/11/13 11:48:28;;;;;;;18.40;10.40;;;;;;;;;;5093253;28;20507;-72
2021/11/13 11:51:02;;;;;;;17.60;11.70;;;;;;;;;;5092375;28;20658;-73
2021/11/13 11:53:55;;;;;;;15.30;10.30;;;;;;;;;;5090362;28;20558;-72
2021/11/13 11:56:28;;;;;;;15.00;9.13;;;;;;;;;;5093993;28;20487;-72
2021/11/13 11:59:03;;;;;;;12.17;9.57;;;;;;;;;;5098101;28;20489;-73
2021/11/13 12:01:42;;;;;;;18.87;11.93;;;;;;;;;;5091094;28;20470;-72
2021/11/13 12:04:15;;;;;;;17.57;10.77;;;;;;;;;;5094793;28;20447;-71
2021/11/13 12:06:44;;;;;;;17.47;11.23;;;;;;;;;;5098299;28;20748;-72
2021/11/13 12:09:16;;;;;;;15.90;10.00;;;;;;;;;;5078172;28;20448;-73
2021/11/13 12:11:45;;;;;;;19.93;12.60;;;;;;;;;;5077843;28;20472;-74
2021/11/13 12:14:32;;;;;;;20.03;11.40;;;;;;;;;;5097140;28;20480;-72
2021/11/13 12:17:30;;;;;;;14.70;10.97;;;;;;;;;;5096906;28;20489;-72
2021/11/13 12:20:36;;;;;;;24.67;14.53;;;;;;;;;;5078199;28;21077;-73
2021/11/13 12:23:10;;;;;;;22.07;12.40;;;;;;;;;;5116276;28;20451;-71
2021/11/13 12:25:42;;;;;;;16.27;11.20;;;;;;;;;;5104706;28;20558;-73
2021/11/13 12:31:12;;;;;;;12.93;8.97;;;;;;;;;;5077526;28;20440;-73
2021/11/13 12:33:40;;;;;;;16.00;10.63;;;;;;;;;;5095712;28;20724;-73
2021/11/13 12:36:11;;;;;;;16.13;11.10;;;;;;;;;;5099354;28;20493;-71
2021/11/13 12:38:46;;;;;;;13.57;10.40;;;;;;;;;;5097697;28;20460;-72
2021/11/13 12:41:22;;;;;;;21.60;13.23;;;;;;;;;;5105640;28;20502;-73
2021/11/13 12:44:10;;;;;;;16.80;10.70;;;;;;;;;;5099189;28;20531;-70
2021/11/13 12:46:42;;;;;;;19.60;13.10;;;;;;;;;;5095987;28;20859;-72
2021/11/13 12:49:29;;;;;;;14.60;9.27;;;;;;;;;;5078380;28;20460;-72
2021/11/13 12:52:08;;;;;;;16.47;11.30;;;;;;;;;;5098063;28;20481;-72
2021/11/13 12:54:46;;;;;;;18.83;10.20;;;;;;;;;;5097870;28;20763;-72
2021/11/13 12:57:28;;;;;;;28.47;16.20;;;;;;;;;;5105424;28;20565;-73
2021/11/13 13:00:18;;;;;;;19.00;14.23;;;;;;;;;;5098884;28;20457;-72
2021/11/13 13:05:33;;;;;;;11.93;8.77;;;;;;;;;;5053739;28;20443;-72
2021/11/13 13:08:14;;;;;;;14.67;10.80;;;;;;;;;;5091773;28;20447;-73
2021/11/13 13:10:47;;;;;;;13.47;10.30;;;;;;;;;;5096829;28;20570;-73
2021/11/13 13:13:21;;;;;;;14.60;8.70;;;;;;;;;;5097370;28;20454;-73
2021/11/13 13:16:16;;;;;;;22.57;13.37;;;;;;;;;;5095868;28;20451;-73
2021/11/13 13:18:51;;;;;;;16.00;9.60;;;;;;;;;;5081552;28;20531;-73
2021/11/13 13:21:29;;;;;;;12.60;9.30;;;;;;;;;;5096709;28;20451;-72
2021/11/13 13:24:00;;;;;;;18.47;11.40;;;;;;;;;;5098930;28;20459;-72
2021/11/13 13:26:38;;;;;;;16.93;10.23;;;;;;;;;;5111957;28;20482;-74
2021/11/13 13:29:15;;;;;;;11.20;9.33;;;;;;;;;;5092637;28;20456;-73
2021/11/13 13:32:11;;;;;;;10.20;6.73;;;;;;;;;;5076802;28;20441;-73
2021/11/13 13:37:57;;;;;;;16.80;12.60;;;;;;;;;;5089203;28;20483;-73
2021/11/13 13:40:28;;;;;;;15.23;8.70;;;;;;;;;;5095893;28;20477;-72
2021/11/13 13:43:19;;;;;;;15.10;10.27;;;;;;;;;;5098560;28;20521;-75
2021/11/13 13:46:03;;;;;;;19.50;12.63;;;;;;;;;;5112977;28;20461;-73
2021/11/13 13:49:17;;;;;;;11.17;8.03;;;;;;;;;;5116763;28;20454;-74
2021/11/13 13:52:06;;;;;;;20.33;13.83;;;;;;;;;;5068468;28;20468;-73
2021/11/13 13:54:51;;;;;;;18.93;11.47;;;;;;;;;;5078884;28;20521;-74
2021/11/13 13:57:24;;;;;;;16.53;10.40;;;;;;;;;;5078834;28;20575;-74
2021/11/13 14:00:18;;;;;;;24.03;13.10;;;;;;;;;;5079250;28;20450;-73
2021/11/13 14:03:14;;;;;;;18.27;12.10;;;;;;;;;;5092894;28;20455;-74
2021/11/13 14:05:44;;;;;;;27.07;11.90;;;;;;;;;;5098237;28;20897;-72
2021/11/13 14:08:12;;;;;;;21.27;13.57;;;;;;;;;;5097264;28;20467;-74
2021/11/13 14:10:51;;;;;;;18.10;12.20;;;;;;;;;;5096671;28;20432;-74
2021/11/13 14:13:20;;;;;;;17.87;12.60;;;;;;;;;;5097589;28;20456;-72
2021/11/13 14:15:55;;;;;;;15.60;10.20;;;;;;;;;;5097339;28;20448;-73
2021/11/13 14:18:29;;;;;;;22.97;12.23;;;;;;;;;;5096548;28;21001;-74
2021/11/13 14:21:07;;;;;;;20.50;14.00;;;;;;;;;;5092293;28;20455;-73
2021/11/13 14:23:43;;;;;;;20.33;11.57;;;;;;;;;;5096141;28;20844;-74
2021/11/13 14:29:27;;;;;;;18.20;12.97;;;;;;;;;;5096131;28;20432;-74
2021/11/13 14:31:58;;;;;;;14.63;12.00;;;;;;;;;;5097618;28;20493;-74
2021/11/13 14:34:36;;;;;;;18.27;9.77;;;;;;;;;;5098461;28;20489;-74
2021/11/13 14:37:15;;;;;;;21.00;13.87;;;;;;;;;;5098788;28;20774;-73
2021/11/13 14:39:57;;;;;;;24.40;15.17;;;;;;;;;;5078080;28;20478;-74
2021/11/13 14:42:31;;;;;;;26.90;16.03;;;;;;;;;;5086223;28;20776;-73
2021/11/13 14:45:06;;;;;;;18.80;12.40;;;;;;;;;;5093916;28;20538;-74
2021/11/13 14:47:45;;;;;;;18.20;11.30;;;;;;;;;;5097035;28;20530;-73
2021/11/13 14:50:18;;;;;;;16.70;11.03;;;;;;;;;;5095617;28;20460;-73
2021/11/13 14:52:52;;;;;;;17.23;9.70;;;;;;;;;;5097810;28;20455;-74
2021/11/13 14:55:27;;;;;;;20.47;12.70;;;;;;;;;;5097115;28;20469;-74
2021/11/13 14:58:13;;;;;;;21.07;12.80;;;;;;;;;;5095013;28;20531;-74
2021/11/13 15:00:47;;;;;;;13.13;10.00;;;;;;;;;;5097259;28;20531;-74
2021/11/13 15:03:29;;;;;;;17.53;11.47;;;;;;;;;;5093343;28;20742;-74